Ojai, CA

3:58 PM PDT on May 28, 2015 (GMT -0700)
Oxnard | | Change Station
CLOSE
Current Station
Airport
Location: Oxnard,
Elevation: 43 ft
Nearby Weather Stations

Elev 43 ft 34.20 °N, 119.20 °W | Updated 7 minutes ago

Clear
Clear
65 °F
Feels Like 65 °F
N
9
Wind Variable Wind from WSW

Today
High -- | Low -- °F
--% Chance of Precip.
Yesterday
High -- | Low -- °F
Precip. -- in
5:47 AM 8:01 PM
Waxing Gibbous, 79% visible
Pressure 29.95 in
Visibility 10.0 miles
Clouds Clear
Dew Point 54 °F
Humidity 68%
Rainfall 0.00 in
Snow Depth Not available.
UV 7 out of 12
Pollen 6.00 out of 12
Air Quality Not available.
Flu Activity Sporadic
METAR KOXR 282251Z 24008KT 220V290 10SM CLR 18/12 A2995 RMK AO2 SLP142 T01830122

More Conditions Fewer Conditions

Pressure 29.95 in
Visibility 10.0 miles
Clouds Clear
Dew Point 54 °F
Humidity 68%
Rainfall 0.00 in
Snow Depth Not available.
UV 7 out of 12
Pollen 6.00 out of 12
Air Quality Not available.
Flu Activity Sporadic
METAR KOXR 282251Z 24008KT 220V290 10SM CLR 18/12 A2995 RMK AO2 SLP142 T01830122

More Conditions Fewer Conditions

10-Day Weather Forecast

Almanac

Astronomy

May. 28, 2015 Rise Set
Actual Time
Civil Twilight
Nautical Twilight
Astronomical Twilight
Moon
Length of Visible Light
Length of Day
Tomorrow will be .
, % of the Moon is Illuminated

Today's Extremes

State Highs State Lows

Community

WunderPhotos

Upload Photos

1,825,083 photos uploaded!

WunderBlogs® & News

Nearby

Air Quality

  Air Quality AQ Index Pollutant
Not available.

Snow Depth

Station Depth Elevation

Earthquake Activity

City Distance Mag. Time & Date
Minimum magnitude displayed is 2.5.

Coastal Water Temperatures

Place Temperature

Stations

Nearby Weather Stations

Station Location Temp. Windchill Dew Point Humidity Wind Precip. Elev Updated Type